AAL1701 KLAS-KTUS
Flight info
| Callsign | AAL1701 |
|---|---|
| Flight time | N/A |
| Altitude | 37000 |
| Route | RASLR3 ZAYNE DRK J11 PXR DINGO6 |
| Aircraft | A321/M-SDE3FGHIRWY/LB1 |
Departure
| Time | 2026-05-05 22:10 |
|---|---|
| Airport | Harry Reid International Airport (KLAS) |
Arrival
| Time | N/A |
|---|---|
| Airport | Tucson International Airport (KTUS) |
| Time | Latitude | Longitude | Altitude | Speed | Heading |
|---|---|---|---|---|---|
| 2026-05-05 21:56 | 36.07981 | -115.13530 | 2076 ft | 0 kts | 0° |
| 2026-05-05 22:01 | 36.07973 | -115.13530 | 2078 ft | 2 kts | 0° |
| 2026-05-05 22:01 | 36.07959 | -115.13530 | 2077 ft | 2 kts | 1° |
| 2026-05-05 22:02 | 36.07944 | -115.13530 | 2076 ft | 2 kts | 3° |
| 2026-05-05 22:02 | 36.07929 | -115.13535 | 2077 ft | 2 kts | 29° |
| 2026-05-05 22:02 | 36.07917 | -115.13546 | 2077 ft | 2 kts | 49° |
| 2026-05-05 22:02 | 36.07912 | -115.13554 | 2077 ft | 1 kts | 60° |
| 2026-05-05 22:03 | 36.07909 | -115.13560 | 2078 ft | 0 kts | 60° |
| 2026-05-05 22:06 | 36.07911 | -115.13555 | 2077 ft | 2 kts | 68° |
| 2026-05-05 22:07 | 36.07913 | -115.13495 | 2076 ft | 11 kts | 90° |
| 2026-05-05 22:07 | 36.07910 | -115.13361 | 2073 ft | 17 kts | 95° |
| 2026-05-05 22:07 | 36.07898 | -115.13200 | 2069 ft | 19 kts | 91° |
| 2026-05-05 22:07 | 36.07894 | -115.13025 | 2066 ft | 21 kts | 91° |
| 2026-05-05 22:08 | 36.07900 | -115.12839 | 2060 ft | 21 kts | 89° |
| 2026-05-05 22:08 | 36.07901 | -115.12715 | 2059 ft | 13 kts | 90° |
| 2026-05-05 22:08 | 36.07871 | -115.12639 | 2059 ft | 8 kts | 165° |
| 2026-05-05 22:08 | 36.07804 | -115.12636 | 2059 ft | 9 kts | 179° |
| 2026-05-05 22:09 | 36.07736 | -115.12612 | 2059 ft | 10 kts | 161° |
| 2026-05-05 22:09 | 36.07668 | -115.12596 | 2060 ft | 6 kts | 182° |
| 2026-05-05 22:09 | 36.07647 | -115.12618 | 2060 ft | 3 kts | 255° |
| 2026-05-05 22:09 | 36.07643 | -115.12675 | 2061 ft | 19 kts | 270° |
| 2026-05-05 22:10 | 36.07643 | -115.13166 | 2071 ft | 93 kts | 270° |
| 2026-05-05 22:10 | 36.07643 | -115.14234 | 2102 ft | 152 kts | 269° |
| 2026-05-05 22:10 | 36.07645 | -115.15613 | 2542 ft | 164 kts | 269° |
| 2026-05-05 22:10 | 36.07647 | -115.17022 | 3212 ft | 166 kts | 269° |
| 2026-05-05 22:11 | 36.07639 | -115.18424 | 3882 ft | 167 kts | 266° |
| 2026-05-05 22:11 | 36.07517 | -115.19900 | 4362 ft | 181 kts | 262° |
| 2026-05-05 22:11 | 36.07348 | -115.21489 | 4804 ft | 195 kts | 262° |
| 2026-05-05 22:11 | 36.07168 | -115.23229 | 5108 ft | 210 kts | 262° |
| 2026-05-05 22:12 | 36.06814 | -115.25011 | 5349 ft | 227 kts | 242° |
| 2026-05-05 22:12 | 36.05694 | -115.26477 | 5607 ft | 247 kts | 211° |
| 2026-05-05 22:12 | 36.04052 | -115.27292 | 5962 ft | 264 kts | 200° |
| 2026-05-05 22:12 | 36.02264 | -115.28058 | 6435 ft | 277 kts | 200° |
| 2026-05-05 22:13 | 36.00391 | -115.28691 | 7099 ft | 282 kts | 185° |
| 2026-05-05 22:13 | 35.98464 | -115.28307 | 7805 ft | 287 kts | 158° |
| 2026-05-05 22:13 | 35.96827 | -115.26916 | 8558 ft | 290 kts | 139° |
| 2026-05-05 22:13 | 35.95351 | -115.25247 | 9292 ft | 293 kts | 138° |
| 2026-05-05 22:14 | 35.93858 | -115.23555 | 10011 ft | 297 kts | 138° |
| 2026-05-05 22:14 | 35.92339 | -115.21784 | 10617 ft | 306 kts | 134° |
| 2026-05-05 22:14 | 35.90927 | -115.19719 | 10997 ft | 324 kts | 126° |
| 2026-05-05 22:14 | 35.89672 | -115.17339 | 11406 ft | 338 kts | 120° |
| 2026-05-05 22:15 | 35.88444 | -115.14780 | 12104 ft | 343 kts | 119° |
| 2026-05-05 22:15 | 35.87294 | -115.12242 | 12872 ft | 345 kts | 115° |
| 2026-05-05 22:15 | 35.86308 | -115.09521 | 13619 ft | 346 kts | 109° |
| 2026-05-05 22:15 | 35.85551 | -115.06736 | 14329 ft | 348 kts | 105° |
| 2026-05-05 22:16 | 35.84869 | -115.03901 | 15027 ft | 350 kts | 104° |
| 2026-05-05 22:16 | 35.84183 | -115.01009 | 15717 ft | 352 kts | 104° |
| 2026-05-05 22:16 | 35.83496 | -114.98123 | 16384 ft | 355 kts | 104° |
| 2026-05-05 22:16 | 35.82801 | -114.95219 | 17031 ft | 357 kts | 104° |
| 2026-05-05 22:17 | 35.82092 | -114.92275 | 17672 ft | 360 kts | 104° |
| 2026-05-05 22:17 | 35.81380 | -114.89333 | 18298 ft | 362 kts | 104° |
| 2026-05-05 22:17 | 35.80654 | -114.86337 | 18912 ft | 365 kts | 104° |
| 2026-05-05 22:17 | 35.79934 | -114.83380 | 19523 ft | 367 kts | 104° |
| 2026-05-05 22:18 | 35.79200 | -114.80368 | 20125 ft | 370 kts | 104° |
| 2026-05-05 22:18 | 35.78461 | -114.77330 | 20683 ft | 373 kts | 104° |
| 2026-05-05 22:18 | 35.77712 | -114.74258 | 21263 ft | 376 kts | 104° |
| 2026-05-05 22:18 | 35.76960 | -114.71177 | 21827 ft | 379 kts | 104° |
| 2026-05-05 22:19 | 35.76206 | -114.68095 | 22380 ft | 381 kts | 104° |
| 2026-05-05 22:19 | 35.75437 | -114.64956 | 22941 ft | 383 kts | 104° |
| 2026-05-05 22:19 | 35.74671 | -114.61837 | 23484 ft | 386 kts | 103° |
| 2026-05-05 22:19 | 35.73892 | -114.58659 | 23993 ft | 388 kts | 104° |
| 2026-05-05 22:20 | 35.73113 | -114.55490 | 24481 ft | 391 kts | 104° |
| 2026-05-05 22:20 | 35.72317 | -114.52256 | 24974 ft | 393 kts | 103° |
| 2026-05-05 22:20 | 35.71528 | -114.49060 | 25398 ft | 397 kts | 103° |
| 2026-05-05 22:20 | 35.70707 | -114.45797 | 25796 ft | 401 kts | 106° |
| 2026-05-05 22:21 | 35.69510 | -114.42699 | 26145 ft | 409 kts | 118° |
| 2026-05-05 22:21 | 35.67762 | -114.39879 | 26532 ft | 416 kts | 129° |
| 2026-05-05 22:21 | 35.65646 | -114.37462 | 26910 ft | 421 kts | 135° |
| 2026-05-05 22:21 | 35.63399 | -114.35101 | 27295 ft | 424 kts | 136° |
| 2026-05-05 22:22 | 35.61137 | -114.32751 | 27667 ft | 427 kts | 137° |
| 2026-05-05 22:22 | 35.58853 | -114.30370 | 28014 ft | 430 kts | 137° |
| 2026-05-05 22:22 | 35.56591 | -114.27998 | 28335 ft | 433 kts | 136° |
| 2026-05-05 22:22 | 35.54273 | -114.25564 | 28652 ft | 437 kts | 137° |
| 2026-05-05 22:23 | 35.51968 | -114.23138 | 28952 ft | 440 kts | 137° |
| 2026-05-05 22:23 | 35.49629 | -114.20674 | 29185 ft | 445 kts | 137° |
| 2026-05-05 22:23 | 35.47272 | -114.18197 | 29453 ft | 449 kts | 137° |
| 2026-05-05 22:23 | 35.44918 | -114.15717 | 29730 ft | 452 kts | 138° |
| 2026-05-05 22:24 | 35.42537 | -114.13214 | 29956 ft | 456 kts | 138° |
| 2026-05-05 22:24 | 35.40101 | -114.10654 | 30164 ft | 460 kts | 140° |
| 2026-05-05 22:24 | 35.37667 | -114.08083 | 30392 ft | 462 kts | 140° |
| 2026-05-05 22:24 | 35.35352 | -114.05354 | 30694 ft | 463 kts | 135° |
| 2026-05-05 22:25 | 35.33302 | -114.02385 | 31042 ft | 462 kts | 129° |
| 2026-05-05 22:25 | 35.31485 | -113.99103 | 31424 ft | 461 kts | 123° |
| 2026-05-05 22:25 | 35.29979 | -113.95651 | 31739 ft | 462 kts | 117° |
| 2026-05-05 22:25 | 35.28786 | -113.92044 | 32029 ft | 463 kts | 111° |
| 2026-05-05 22:26 | 35.27868 | -113.88217 | 32283 ft | 465 kts | 106° |
| 2026-05-05 22:26 | 35.27090 | -113.84387 | 32532 ft | 467 kts | 105° |
| 2026-05-05 22:26 | 35.26342 | -113.80574 | 32759 ft | 468 kts | 106° |
| 2026-05-05 22:26 | 35.25564 | -113.76702 | 32986 ft | 469 kts | 106° |
| 2026-05-05 22:27 | 35.24776 | -113.72868 | 33241 ft | 470 kts | 107° |
| 2026-05-05 22:27 | 35.23874 | -113.69039 | 33545 ft | 469 kts | 111° |
| 2026-05-05 22:27 | 35.22772 | -113.65255 | 33854 ft | 468 kts | 115° |
| 2026-05-05 22:27 | 35.21502 | -113.61636 | 34157 ft | 466 kts | 118° |
| 2026-05-05 22:28 | 35.20047 | -113.58103 | 34480 ft | 464 kts | 122° |
| 2026-05-05 22:28 | 35.18512 | -113.54655 | 34796 ft | 463 kts | 123° |
| 2026-05-05 22:28 | 35.16965 | -113.51215 | 35132 ft | 463 kts | 123° |
| 2026-05-05 22:28 | 35.15437 | -113.47817 | 35436 ft | 462 kts | 123° |
| 2026-05-05 22:29 | 35.13885 | -113.44359 | 35686 ft | 463 kts | 123° |
| 2026-05-05 22:29 | 35.12330 | -113.40892 | 35856 ft | 465 kts | 123° |
| 2026-05-05 22:29 | 35.10777 | -113.37435 | 36051 ft | 467 kts | 123° |
| 2026-05-05 22:29 | 35.09235 | -113.33997 | 36250 ft | 468 kts | 124° |
| 2026-05-05 22:30 | 35.07663 | -113.30486 | 36459 ft | 469 kts | 124° |
| 2026-05-05 22:30 | 35.06080 | -113.26959 | 36670 ft | 469 kts | 124° |
| 2026-05-05 22:30 | 35.04517 | -113.23484 | 36854 ft | 470 kts | 124° |
| 2026-05-05 22:30 | 35.02948 | -113.19993 | 36972 ft | 472 kts | 124° |
| 2026-05-05 22:31 | 35.01385 | -113.16520 | 36978 ft | 473 kts | 124° |
| 2026-05-05 22:31 | 34.98216 | -113.09487 | 36990 ft | 474 kts | 124° |
| 2026-05-05 22:32 | 34.95045 | -113.02462 | 36986 ft | 474 kts | 124° |
| 2026-05-05 22:32 | 34.91862 | -112.95430 | 36985 ft | 474 kts | 125° |
| 2026-05-05 22:33 | 34.88674 | -112.88403 | 36989 ft | 474 kts | 125° |
| 2026-05-05 22:33 | 34.85468 | -112.81345 | 36992 ft | 476 kts | 125° |
| 2026-05-05 22:34 | 34.82260 | -112.74296 | 36994 ft | 476 kts | 126° |
| 2026-05-05 22:34 | 34.79048 | -112.67258 | 36997 ft | 478 kts | 126° |
| 2026-05-05 22:34 | 34.77440 | -112.63734 | 36884 ft | 479 kts | 126° |
| 2026-05-05 22:35 | 34.75830 | -112.60208 | 36948 ft | 478 kts | 126° |
| 2026-05-05 22:35 | 34.72210 | -112.53522 | 36996 ft | 468 kts | 138° |
| 2026-05-05 22:36 | 34.67499 | -112.48285 | 36993 ft | 450 kts | 153° |
| 2026-05-05 22:36 | 34.62098 | -112.44746 | 37032 ft | 434 kts | 167° |
| 2026-05-05 22:37 | 34.56416 | -112.42382 | 37007 ft | 431 kts | 170° |
| 2026-05-05 22:37 | 34.50722 | -112.40097 | 36998 ft | 430 kts | 170° |
| 2026-05-05 22:38 | 34.45073 | -112.37821 | 36990 ft | 431 kts | 170° |
| 2026-05-05 22:38 | 34.39392 | -112.35523 | 36978 ft | 429 kts | 171° |
| 2026-05-05 22:39 | 34.33687 | -112.33212 | 36949 ft | 430 kts | 171° |
| 2026-05-05 22:39 | 34.28044 | -112.30930 | 36948 ft | 429 kts | 172° |
| 2026-05-05 22:40 | 34.22396 | -112.28652 | 36940 ft | 426 kts | 172° |
| 2026-05-05 22:40 | 34.16765 | -112.26380 | 36933 ft | 426 kts | 172° |
| 2026-05-05 22:41 | 34.11140 | -112.24117 | 36937 ft | 426 kts | 172° |
| 2026-05-05 22:41 | 34.05523 | -112.21858 | 36922 ft | 424 kts | 172° |
| 2026-05-05 22:42 | 33.98982 | -112.19229 | 36953 ft | 423 kts | 173° |
| 2026-05-05 22:42 | 33.94333 | -112.17364 | 36949 ft | 423 kts | 173° |
| 2026-05-05 22:43 | 33.88758 | -112.15130 | 36956 ft | 422 kts | 173° |
| 2026-05-05 22:43 | 33.83169 | -112.12899 | 36942 ft | 424 kts | 173° |
| 2026-05-05 22:44 | 33.77589 | -112.10667 | 36936 ft | 423 kts | 173° |
| 2026-05-05 22:44 | 33.72013 | -112.08442 | 36939 ft | 422 kts | 174° |
| 2026-05-05 22:45 | 33.66430 | -112.06219 | 36931 ft | 420 kts | 173° |
| 2026-05-05 22:45 | 33.60902 | -112.04016 | 36921 ft | 419 kts | 174° |
| 2026-05-05 22:46 | 33.55406 | -112.01833 | 36902 ft | 418 kts | 174° |
| 2026-05-05 22:46 | 33.49871 | -111.99637 | 36907 ft | 416 kts | 174° |
| 2026-05-05 22:47 | 33.44327 | -111.97748 | 36907 ft | 409 kts | 179° |
| 2026-05-05 22:47 | 33.41565 | -111.97076 | 36690 ft | 404 kts | 182° |
| 2026-05-05 22:47 | 33.38823 | -111.96575 | 36422 ft | 396 kts | 185° |
| 2026-05-05 22:47 | 33.36115 | -111.96237 | 36140 ft | 389 kts | 187° |
| 2026-05-05 22:48 | 33.33431 | -111.95931 | 35862 ft | 385 kts | 187° |
| 2026-05-05 22:48 | 33.30791 | -111.95628 | 35596 ft | 382 kts | 187° |
| 2026-05-05 22:48 | 33.28125 | -111.95322 | 35326 ft | 381 kts | 187° |
| 2026-05-05 22:48 | 33.25512 | -111.95027 | 35078 ft | 380 kts | 188° |
| 2026-05-05 22:49 | 33.22872 | -111.94731 | 34858 ft | 379 kts | 188° |
| 2026-05-05 22:49 | 33.20273 | -111.94441 | 34647 ft | 377 kts | 187° |
| 2026-05-05 22:49 | 33.17671 | -111.94146 | 34432 ft | 376 kts | 188° |
| 2026-05-05 22:49 | 33.15066 | -111.93852 | 34209 ft | 373 kts | 188° |
| 2026-05-05 22:50 | 33.12471 | -111.93559 | 33993 ft | 374 kts | 188° |
| 2026-05-05 22:50 | 33.09895 | -111.93269 | 33773 ft | 371 kts | 188° |
| 2026-05-05 22:50 | 33.07327 | -111.92979 | 33554 ft | 372 kts | 189° |
| 2026-05-05 22:50 | 33.04740 | -111.92690 | 33331 ft | 371 kts | 188° |
| 2026-05-05 22:51 | 33.02206 | -111.92407 | 33098 ft | 370 kts | 188° |
| 2026-05-05 22:51 | 32.99648 | -111.92122 | 32861 ft | 369 kts | 189° |
| 2026-05-05 22:51 | 32.97056 | -111.91834 | 32537 ft | 370 kts | 188° |
| 2026-05-05 22:51 | 32.94487 | -111.91429 | 32040 ft | 377 kts | 184° |
| 2026-05-05 22:52 | 32.91898 | -111.90757 | 31393 ft | 386 kts | 181° |
| 2026-05-05 22:52 | 32.89320 | -111.89818 | 30681 ft | 396 kts | 176° |
| 2026-05-05 22:52 | 32.86721 | -111.88577 | 29959 ft | 407 kts | 171° |
| 2026-05-05 22:52 | 32.84192 | -111.87044 | 29420 ft | 413 kts | 166° |
| 2026-05-05 22:53 | 32.81745 | -111.85219 | 28964 ft | 417 kts | 162° |
| 2026-05-05 22:53 | 32.79379 | -111.83285 | 28527 ft | 412 kts | 161° |
| 2026-05-05 22:53 | 32.77031 | -111.81338 | 28097 ft | 407 kts | 161° |
| 2026-05-05 22:53 | 32.74744 | -111.79436 | 27685 ft | 402 kts | 161° |
| 2026-05-05 22:54 | 32.72475 | -111.77555 | 27250 ft | 397 kts | 161° |
| 2026-05-05 22:54 | 32.70198 | -111.75676 | 26733 ft | 395 kts | 160° |
| 2026-05-05 22:54 | 32.67954 | -111.73823 | 26233 ft | 393 kts | 160° |
| 2026-05-05 22:54 | 32.65743 | -111.72003 | 25745 ft | 391 kts | 160° |
| 2026-05-05 22:55 | 32.63514 | -111.70164 | 25267 ft | 388 kts | 159° |
| 2026-05-05 22:55 | 32.61298 | -111.68335 | 24789 ft | 385 kts | 159° |
| 2026-05-05 22:55 | 32.59132 | -111.66551 | 24300 ft | 383 kts | 159° |
| 2026-05-05 22:55 | 32.56953 | -111.64690 | 23834 ft | 385 kts | 155° |
| 2026-05-05 22:56 | 32.54934 | -111.62576 | 23348 ft | 394 kts | 148° |
| 2026-05-05 22:56 | 32.53088 | -111.60141 | 22828 ft | 404 kts | 141° |
| 2026-05-05 22:56 | 32.51386 | -111.57501 | 22335 ft | 404 kts | 139° |
| 2026-05-05 22:56 | 32.49617 | -111.54950 | 21844 ft | 396 kts | 143° |
| 2026-05-05 22:57 | 32.47736 | -111.52657 | 21329 ft | 388 kts | 148° |
| 2026-05-05 22:57 | 32.45746 | -111.50552 | 20859 ft | 382 kts | 150° |
| 2026-05-05 22:57 | 32.43741 | -111.48506 | 20378 ft | 380 kts | 150° |
| 2026-05-05 22:57 | 32.41740 | -111.46477 | 19936 ft | 377 kts | 149° |
| 2026-05-05 22:58 | 32.39756 | -111.44463 | 19480 ft | 374 kts | 149° |
| 2026-05-05 22:58 | 32.37793 | -111.42464 | 19004 ft | 372 kts | 149° |
| 2026-05-05 22:58 | 32.35834 | -111.40474 | 18540 ft | 371 kts | 148° |
| 2026-05-05 22:58 | 32.33884 | -111.38489 | 18088 ft | 369 kts | 148° |
| 2026-05-05 22:59 | 32.31947 | -111.36521 | 17619 ft | 368 kts | 148° |
| 2026-05-05 22:59 | 32.30013 | -111.34557 | 17153 ft | 366 kts | 148° |
| 2026-05-05 22:59 | 32.28076 | -111.32587 | 16672 ft | 363 kts | 147° |
| 2026-05-05 22:59 | 32.26174 | -111.30655 | 16236 ft | 360 kts | 147° |
| 2026-05-05 23:00 | 32.22404 | -111.26829 | 15350 ft | 356 kts | 146° |
| 2026-05-05 23:00 | 32.20534 | -111.24931 | 14890 ft | 354 kts | 146° |
| 2026-05-05 23:00 | 32.18679 | -111.23053 | 14448 ft | 352 kts | 146° |
| 2026-05-05 23:01 | 32.16844 | -111.21195 | 14009 ft | 349 kts | 146° |
| 2026-05-05 23:01 | 32.15003 | -111.19329 | 13560 ft | 347 kts | 145° |
| 2026-05-05 23:01 | 32.13188 | -111.17493 | 13119 ft | 344 kts | 145° |
| 2026-05-05 23:01 | 32.11367 | -111.15650 | 12667 ft | 342 kts | 144° |
| 2026-05-05 23:02 | 32.09563 | -111.13826 | 12209 ft | 340 kts | 144° |
| 2026-05-05 23:02 | 32.07789 | -111.12032 | 11759 ft | 338 kts | 144° |
| 2026-05-05 23:02 | 32.06000 | -111.10228 | 11311 ft | 335 kts | 144° |
| 2026-05-05 23:02 | 32.04255 | -111.08469 | 10860 ft | 333 kts | 144° |
| 2026-05-05 23:03 | 32.02506 | -111.06708 | 10476 ft | 328 kts | 143° |
| 2026-05-05 23:03 | 32.00805 | -111.04987 | 10298 ft | 316 kts | 144° |
| 2026-05-05 23:03 | 31.99168 | -111.03330 | 10139 ft | 303 kts | 144° |
| 2026-05-05 23:03 | 31.97599 | -111.01747 | 10002 ft | 291 kts | 144° |
| 2026-05-05 23:04 | 31.96070 | -111.00208 | 9712 ft | 287 kts | 144° |
| 2026-05-05 23:04 | 31.94548 | -110.98683 | 9335 ft | 287 kts | 144° |
| 2026-05-05 23:04 | 31.93060 | -110.97138 | 8960 ft | 287 kts | 141° |
| 2026-05-05 23:04 | 31.91627 | -110.95485 | 8591 ft | 286 kts | 140° |
| 2026-05-05 23:05 | 31.90233 | -110.93847 | 8218 ft | 285 kts | 140° |
| 2026-05-05 23:05 | 31.88834 | -110.92188 | 7864 ft | 284 kts | 137° |
| 2026-05-05 23:05 | 31.87818 | -110.90179 | 7444 ft | 294 kts | 108° |
| 2026-05-05 23:05 | 31.87835 | -110.87785 | 7066 ft | 301 kts | 75° |
| 2026-05-05 23:06 | 31.88894 | -110.85662 | 6691 ft | 299 kts | 45° |
| 2026-05-05 23:06 | 31.90380 | -110.84042 | 6625 ft | 285 kts | 41° |
| 2026-05-05 23:06 | 31.91795 | -110.82496 | 6581 ft | 272 kts | 42° |
| 2026-05-05 23:06 | 31.93135 | -110.80978 | 6523 ft | 259 kts | 43° |
| 2026-05-05 23:07 | 31.94376 | -110.79542 | 6562 ft | 240 kts | 43° |
| 2026-05-05 23:07 | 31.95521 | -110.78203 | 6415 ft | 228 kts | 42° |
| 2026-05-05 23:07 | 31.96842 | -110.77275 | 6181 ft | 217 kts | 6° |
| 2026-05-05 23:07 | 31.98233 | -110.77563 | 5968 ft | 199 kts | 320° |
| 2026-05-05 23:08 | 31.99193 | -110.78693 | 5798 ft | 192 kts | 302° |
| 2026-05-05 23:08 | 32.00016 | -110.79919 | 5578 ft | 190 kts | 302° |
| 2026-05-05 23:08 | 32.00852 | -110.81091 | 5332 ft | 185 kts | 304° |
| 2026-05-05 23:08 | 32.01716 | -110.82214 | 5020 ft | 183 kts | 306° |
| 2026-05-05 23:09 | 32.02574 | -110.83276 | 4779 ft | 177 kts | 307° |
| 2026-05-05 23:09 | 32.03402 | -110.84265 | 4561 ft | 162 kts | 306° |
| 2026-05-05 23:09 | 32.04166 | -110.85166 | 4325 ft | 148 kts | 306° |
| 2026-05-05 23:09 | 32.04884 | -110.86015 | 4131 ft | 145 kts | 307° |
| 2026-05-05 23:10 | 32.05595 | -110.86852 | 3959 ft | 145 kts | 305° |
| 2026-05-05 23:10 | 32.06304 | -110.87683 | 3771 ft | 143 kts | 304° |
| 2026-05-05 23:10 | 32.07006 | -110.88512 | 3578 ft | 143 kts | 305° |
| 2026-05-05 23:10 | 32.07713 | -110.89357 | 3389 ft | 145 kts | 307° |
| 2026-05-05 23:11 | 32.08427 | -110.90197 | 3201 ft | 146 kts | 308° |
| 2026-05-05 23:11 | 32.09161 | -110.91027 | 3008 ft | 145 kts | 304° |
| 2026-05-05 23:11 | 32.09870 | -110.91891 | 2788 ft | 146 kts | 306° |
| 2026-05-05 23:11 | 32.10579 | -110.92731 | 2645 ft | 137 kts | 307° |
| 2026-05-05 23:12 | 32.11160 | -110.93423 | 2623 ft | 96 kts | 317° |